Terminal Aerodrome Forecast
Issued by NWS Mt. Holly, NJ

Home | Current Version | Previous Version | Text Only | Print | Product List | Glossary On
Versions: 1 2 3 4 5 6 7 8 9 10 11 12 13 14 15 16 17 18 19 20 21 22 23 24 25 26 27 28 29 30
000
FTUS41 KPHI 271741
TAFPHL
TAF
KPHL 271741Z 2718/2824 33011KT P6SM SCT035 OVC100
     FM280000 33008KT P6SM SCT045 BKN100
     FM280600 34012KT P6SM SCT040 BKN100
     FM281200 32012G22KT P6SM BKN045
     FM281800 34015G25KT P6SM SCT050=

USA.gov is the U.S. government's official web portal to all federal, state and local government web resources and services.